Hyalite Weather Station

This weather station provides temperature, wind speed, gust or max wind speed, and wind direction at 9982ft near the summit of Flanders Mountain. This data can be used with temperature and precipitation data from the Shower Falls SNOTEL site. If the data has not been updated recently you can view it directly on datagarrison.com

Elevation
9982ft
Jump to table bottom
Date Time Temperature
deg F
RH, % Wind Speed Wind Gust Wind Direction
11/12/19 13:00 35.3 44 27 46 W - 260
11/12/19 12:00 37.4 45 27 42 W - 258
11/12/19 11:00 33.6 48 24 37 W - 257
11/12/19 10:00 31.4 45 19 33 W - 254
11/12/19 09:00 29.6 49 19 28 W - 260
11/12/19 08:00 30.1 48 20 31 W - 258
11/12/19 07:00 28.9 36 20 37 W - 260
11/12/19 06:00 29.7 18 22 37 W - 260
11/12/19 05:00 28.3 16 22 34 W - 260
11/12/19 04:00 28.9 15 22 37 W - 260
11/12/19 03:00 28.8 14 23 37 W - 260
11/12/19 02:00 30.2 12 25 39 W - 261
11/12/19 01:00 29.0 15 20 35 W - 256
11/12/19 00:00 29.1 13 20 33 W - 257
11/11/19 23:00 29.1 13 20 34 W - 258
11/11/19 22:00 28.6 15 18 27 W - 257
11/11/19 21:00 26.9 15 17 24 W - 260
11/11/19 20:00 25.9 17 15 23 W - 260
11/11/19 19:00 25.5 19 13 22 W - 261
11/11/19 18:00 25.5 19 11 19 W - 260
11/11/19 17:00 26.0 18 13 18 W - 260
11/11/19 16:00 26.5 21 10 17 W - 260
11/11/19 15:00 25.4 23 9 14 W - 257
11/11/19 14:00 24.6 25 9 14 W - 257
11/11/19 13:00 23.8 24 10 15 W - 261
11/11/19 12:00 21.9 22 7 12 W - 263
11/11/19 11:00 20.4 16 10 14 N - 343
11/11/19 10:00 18.5 18 8 14 NW - 320
11/11/19 09:00 14.0 55 10 14 NW - 333
11/11/19 08:00 11.5 89 10 13 NW - 306
11/11/19 07:00 5.4 91 10 13 NW - 296
11/11/19 06:00 3.8 90 10 15 W - 286
11/11/19 05:00 3.1 90 11 15 W - 278
11/11/19 04:00 2.8 90 11 15 W - 284
11/11/19 03:00 4.3 90 12 17 W - 271
11/11/19 02:00 5.0 90 12 17 W - 268
11/11/19 01:00 6.4 91 9 14 W - 271
11/11/19 00:00 6.9 91 8 15 W - 282
11/10/19 23:00 7.1 91 8 12 W - 289
11/10/19 22:00 7.6 91 7 16 NW - 298
11/10/19 21:00 9.0 92 8 14 W - 277
11/10/19 20:00 11.1 93 10 18 W - 281
11/10/19 19:00 12.5 93 10 19 W - 274
11/10/19 18:00 12.9 94 10 16 W - 281
11/10/19 17:00 16.6 95 11 19 W - 271
11/10/19 16:00 17.5 95 11 17 W - 268
11/10/19 15:00 18.1 89 12 26 W - 288
11/10/19 14:00 23.7 97 17 32 W - 264
11/10/19 13:00 25.7 97 15 31 W - 268
11/10/19 12:00 26.1 97 16 31 W - 265